createdAt,value
2023-02-24T04:31:26.645Z,51.50
2023-02-24T04:42:03.046Z,45.88
2023-02-24T04:52:38.831Z,53.75
2023-02-24T05:03:15.794Z,53.42
2023-02-24T05:13:51.346Z,53.13
2023-02-24T05:24:29.435Z,50.22
2023-02-24T05:35:05.853Z,49.10
2023-02-24T05:45:44.139Z,48.97
2023-02-24T05:56:19.904Z,48.93
2023-02-24T06:06:55.805Z,48.38
2023-02-24T06:17:31.777Z,55.28
2023-02-24T06:28:07.992Z,51.40
2023-02-24T06:38:43.698Z,54.03
2023-02-24T06:49:19.634Z,64.40
2023-02-24T06:59:56.052Z,56.65
2023-02-24T07:10:32.961Z,54.78
2023-02-24T07:21:16.149Z,58.08
2023-02-24T07:31:54.993Z,47.00
2023-02-24T07:42:35.209Z,49.97
2023-02-24T07:53:16.360Z,47.85
2023-02-24T08:03:55.993Z,46.88
2023-02-24T08:14:34.705Z,51.28
2023-02-24T08:25:18.335Z,47.40
2023-02-24T08:36:03.748Z,51.33
2023-02-24T08:46:40.505Z,51.30
2023-02-24T08:57:18.093Z,47.58
2023-02-24T09:07:54.677Z,44.40
2023-02-24T09:18:30.938Z,47.00
2023-02-24T09:29:26.658Z,52.13
2023-02-24T09:40:17.208Z,51.83
2023-02-24T09:51:05.221Z,46.25
2023-02-24T10:02:10.101Z,45.23
2023-02-24T10:12:52.881Z,39.58
2023-02-24T10:23:47.178Z,36.85
2023-02-24T10:34:31.780Z,35.97
2023-02-24T10:45:22.027Z,32.90
2023-02-24T10:56:18.848Z,29.27
2023-02-24T11:07:09.795Z,35.72
2023-02-24T11:17:53.834Z,36.58
2023-02-24T11:28:49.716Z,36.30
2023-02-24T11:40:03.748Z,31.52
2023-02-24T11:51:24.403Z,40.38
2023-02-24T12:02:15.435Z,34.67
2023-02-24T12:13:03.122Z,32.65
2023-02-24T12:23:44.076Z,31.25
2023-02-24T12:34:22.801Z,25.88
2023-02-24T12:45:03.668Z,26.20
2023-02-24T12:56:06.229Z,22.27
2023-02-24T13:07:20.205Z,23.38
2023-02-24T13:17:58.106Z,14.13
2023-02-24T13:28:38.221Z,19.63
2023-02-24T13:39:35.724Z,17.38
2023-02-24T13:50:25.373Z,18.15
2023-02-24T14:01:03.642Z,11.82
2023-02-24T14:11:39.469Z,13.40
2023-02-24T14:22:20.350Z,13.98
2023-02-24T14:32:56.442Z,8.45
2023-02-24T14:43:32.017Z,11.85
2023-02-24T14:54:15.011Z,8.98
2023-02-24T15:04:55.180Z,9.57
2023-02-24T15:15:34.883Z,13.13
2023-02-24T15:26:26.083Z,11.65
2023-02-24T15:37:12.420Z,13.48
2023-02-24T15:47:53.696Z,11.55
2023-02-24T15:58:29.188Z,8.23
2023-02-24T16:09:05.173Z,14.15
2023-02-24T16:19:40.829Z,9.27
2023-02-24T16:30:22.637Z,8.07
2023-02-24T16:40:59.102Z,6.65
2023-02-24T16:51:35.470Z,4.82
2023-02-24T17:02:19.869Z,6.50
2023-02-24T17:12:55.384Z,3.70
2023-02-24T17:23:32.176Z,4.18
2023-02-24T17:34:07.488Z,3.17
2023-02-24T17:44:43.303Z,5.47
2023-02-24T17:55:19.203Z,9.57
2023-02-24T18:06:01.350Z,6.43
2023-02-24T18:16:37.367Z,6.78
2023-02-24T18:27:13.409Z,10.20
2023-02-24T18:37:53.281Z,9.73
2023-02-24T18:48:30.314Z,7.50
2023-02-24T18:59:06.011Z,4.10
2023-02-24T19:09:42.644Z,4.63
2023-02-24T19:20:19.939Z,4.90
2023-02-24T19:30:55.720Z,6.68
2023-02-24T19:41:31.475Z,6.18
2023-02-24T19:52:07.632Z,12.38
2023-02-24T20:02:43.470Z,13.98
2023-02-24T20:13:19.025Z,11.00
2023-02-24T20:23:54.767Z,7.43
2023-02-24T20:34:30.521Z,8.13
2023-02-24T20:45:07.913Z,7.10
2023-02-24T20:55:44.643Z,5.93
2023-02-24T21:06:20.503Z,8.75
2023-02-24T21:16:56.361Z,8.93
2023-02-24T21:27:31.916Z,9.13
2023-02-24T21:38:08.162Z,11.82
2023-02-24T21:48:43.762Z,13.98
2023-02-24T21:59:19.589Z,8.70
2023-02-24T22:09:55.344Z,10.75
2023-02-24T22:20:31.279Z,5.95
